Weather at Hospital Heliport

Public forecast

Using degrees Celsius for public forecast. Weather courtesy of forecast.io.

Closest aviation weather report (METAR) to Hospital Heliport

Closest report is Karlovy Vary International Airport, 24.2 nm (44.9 km) SW. Retrieved 2021/08/04 06:30 UTC (56 seconds ago):

LKKV 040630Z VRB03KT 9999 BKN011 13/12 Q1015

Closest aviation forecast (TAF) to Hospital Heliport

Closest forecast is Karlovy Vary International Airport, 24.2 nm (44.9 km) SW. Retrieved 2021/08/04 06:16 UTC (15 minutes ago):

TAF LKKV 040500Z 0406/0512 24005KT 9999 BKN025 TEMPO 0406/0409 7000 -RA BKN012 TEMPO 0409/0418 8000 -SHRA SCT020TCU PROB30 TEMPO 0506/0512 6000 SHRA SCT010TCU BKN012